This is the latest recevied weather packets stored in our database for station/object KJ4UBX-11. If no packets are shown the sender has not sent any weather packets the latest 10 day(s).
| Time | Temp. | Humidity | Pressure | Rain* | Wind** | Luminosity | Snow |
|---|---|---|---|---|---|---|---|
| 1777488719 | 13.89° C | 66% | 1015.3 hPa | - | - | - | - |
| 1777488138 | 15° C | 61% | 1015.5 hPa | - | - | - | - |
| 1777487555 | 15.56° C | 58% | 1015.5 hPa | - | - | - | - |
| 1777486972 | 16.11° C | 59% | 1015.5 hPa | - | - | - | - |
| 1777486390 | 15.56° C | 58% | 1015.4 hPa | - | - | - | - |
| 1777485805 | 15.56° C | 60% | 1015.2 hPa | - | - | - | - |
| 1777485221 | 15° C | 60% | 1015.2 hPa | - | - | - | - |
| 1777484639 | 15° C | 60% | 1015.1 hPa | - | - | - | - |
| 1777484054 | 14.44° C | 63% | 1015.1 hPa | - | - | - | - |
| 1777483471 | 14.44° C | 61% | 1015.4 hPa | - | - | - | - |
| 1777482888 | 14.44° C | 60% | 1015.8 hPa | - | - | - | - |
| 1777482305 | 15° C | 60% | 1015.4 hPa | - | - | - | - |
| 1777481722 | 15.56° C | 62% | 1015.2 hPa | - | - | - | - |
| 1777481137 | 14.44° C | 64% | 1015.4 hPa | - | - | - | - |
| 1777480555 | 15° C | 67% | 1015.6 hPa | - | - | - | - |
| 1777479974 | 14.44° C | 66% | 1015.7 hPa | - | - | - | - |
| 1777479392 | 15.56° C | 62% | 1015.7 hPa | - | - | - | - |
| 1777478811 | 16.67° C | 55% | 1016 hPa | - | - | - | - |
| 1777478227 | 16.67° C | 56% | 1016 hPa | - | - | - | - |
| 1777477647 | 18.89° C | 49% | 1016.1 hPa | - | - | - | - |
| 1777477068 | 20.56° C | 43% | 1016.2 hPa | - | - | - | - |
| 1777476490 | 24.44° C | 37% | 1016.4 hPa | - | - | - | - |
| 1777475906 | 23.33° C | 38% | 1016.5 hPa | - | - | - | - |
| 1777475324 | 26.11° C | 35% | 1016.7 hPa | - | - | - | - |
| 1777474736 | 22.78° C | 38% | 1017.2 hPa | - | - | - | - |
* Rain since midnight (hover to see other rain measurements)
** Current wind speed in m/s (hover to see current wind gust speed)